Airfield :
LOGIN :

Register | Disclaimer

   EN    FR    IT 

 










Legend :    VFR   Marginal VFR   IFR   Intensive IFR   Very Intensive IFR
Visi :
Ceiling :
>= 8 km
>= 3000ft
5 to 8 km
1000 to 3000 ft
1500m to 5 km
500 to 1000 ft
800 to 1500m
200 to 500 ft
< 800m
< 200 ft
Symbols :   Thunderstorms  Fog  Heavy snow  Heavy precipitations  Wind > 20 kt
SIGMETs :     Misc.  Thunderstorms  Icing  Turbulence  Mountain Waves  Volcanic Ashes






- Airport Elevation : 257 ft
- IATA code : MAN


EGCC - Manchester

CURRENT METAR :
  • 191720Z AUTO 18008KT 150V210 9000 -RA BKN025/// BKN030/// OVC037/// //////TCU 07/06 Q1009 NOSIG

EXPIRED METARs :
  • 191650Z AUTO 19008KT 150V220 9999 -RA FEW020/// BKN029/// BKN040/// //////TCU 07/06 Q1010
  • 191620Z AUTO 19008KT 150V220 8000 -RA SCT022 BKN027 07/06 Q1010 TEMPO RA
  • 191550Z 19009KT 160V240 9999 -RA FEW009 SCT025 BKN030 07/06 Q1011
  • 191520Z 19008KT 130V220 9999 -RA FEW019 BKN030 07/06 Q1011
  • 191450Z 18009KT 100V220 9999 -RA FEW012 BKN048 07/05 Q1012

TAF TAF EGCC
Valid from the 19 at 12:00 until the 20 at 18:00 UTC


191057Z 1912/2018 20012KT 9999 SCT018
TEMPO 1912/2009 6000 RA BKN010
PROB30
TEMPO 1918/2010 22018G30KT BKN008
PROB30
TEMPO 2007/2010 4000 +RA
BECMG 2010/2012 28015G25KT
TEMPO 2010/2018 7000 SHRA
PROB30
TEMPO 2014/2018 4000 +SHRA
ATIS : +44 161 499 2324



MET'MAP, your aeronautical weather chart ! - Copyright ORBIFLY December 2007 - Disclaimer

ORBIFLY MET'MAP TEAM :

Programming & Development : Alexandra Zaïnal
Concept & original design : Baudouin d'Aumeries
Assistance for programming : Marc-Olivier Méhu
Technical & hardware support : Manuel Goepfert

Contact : metmap@orbifly.com




SOURCES & CREDITS :

   NOAA